createdAt,value
2023-02-11T00:01:16.712Z,-3.10
2023-02-11T00:03:43.802Z,-3.05
2023-02-11T00:06:11.980Z,-3.02
2023-02-11T00:08:39.776Z,-2.98
2023-02-11T00:11:07.248Z,-2.96
2023-02-11T00:13:34.529Z,-2.95
2023-02-11T00:16:07.378Z,-2.96
2023-02-11T00:18:34.424Z,-2.97
2023-02-11T00:21:10.212Z,-2.98
2023-02-11T00:23:38.048Z,-3.01
2023-02-11T00:26:12.255Z,-3.04
2023-02-11T00:28:39.193Z,-3.04
2023-02-11T00:31:06.322Z,-3.07
2023-02-11T00:33:33.278Z,-3.09
2023-02-11T00:36:08.681Z,-3.11
2023-02-11T00:38:36.179Z,-3.14
2023-02-11T00:41:03.026Z,-3.15
2023-02-11T00:43:29.956Z,-3.16
2023-02-11T00:45:57.260Z,-3.16
2023-02-11T00:48:24.527Z,-3.14
2023-02-11T00:50:51.645Z,-3.08
2023-02-11T00:53:18.999Z,-3.05
2023-02-11T00:55:46.013Z,-3.02
2023-02-11T00:58:13.004Z,-2.99
2023-02-11T01:00:40.502Z,-2.97
2023-02-11T01:03:07.454Z,-2.97
2023-02-11T01:05:35.847Z,-2.98
2023-02-11T01:08:03.971Z,-3.01
2023-02-11T01:10:31.407Z,-3.03
2023-02-11T01:12:58.449Z,-3.06
2023-02-11T01:15:25.891Z,-3.07
2023-02-11T01:17:53.013Z,-3.10
2023-02-11T01:20:24.252Z,-3.10
2023-02-11T01:22:51.097Z,-3.10
2023-02-11T01:25:18.050Z,-3.08
2023-02-11T01:27:45.017Z,-3.08
2023-02-11T01:30:14.381Z,-3.06
2023-02-11T01:32:41.819Z,-3.04
2023-02-11T01:35:09.255Z,-3.02
2023-02-11T01:37:36.691Z,-3.03
2023-02-11T01:40:07.491Z,-3.03
2023-02-11T01:42:34.533Z,-3.06
2023-02-11T01:45:22.239Z,-3.08
2023-02-11T01:47:49.089Z,-3.11
2023-02-11T01:50:16.608Z,-3.13
2023-02-11T01:52:46.625Z,-3.16
2023-02-11T01:55:33.410Z,-3.16
2023-02-11T01:58:05.165Z,-3.15
2023-02-11T02:00:39.537Z,-3.14
2023-02-11T02:03:11.722Z,-3.13
2023-02-11T02:05:58.431Z,-3.12
2023-02-11T02:08:47.009Z,-3.11
2023-02-11T02:11:14.099Z,-3.10
2023-02-11T02:13:41.039Z,-3.10
2023-02-11T02:16:18.139Z,-3.08
2023-02-11T02:19:31.493Z,-3.05
2023-02-11T02:22:07.965Z,-2.99
2023-02-11T02:25:01.296Z,-2.94
2023-02-11T02:27:48.531Z,-2.87
2023-02-11T02:30:33.761Z,-2.79
2023-02-11T02:33:34.326Z,-2.70
2023-02-11T02:36:48.239Z,-2.60
2023-02-11T02:39:21.804Z,-2.52
2023-02-11T02:41:51.244Z,-2.46
2023-02-11T02:44:20.070Z,-2.42
2023-02-11T02:46:47.407Z,-2.41
2023-02-11T02:49:16.686Z,-2.41
2023-02-11T02:52:16.289Z,-2.42
2023-02-11T02:55:12.819Z,-2.44
2023-02-11T02:58:35.778Z,-2.45
2023-02-11T03:01:14.661Z,-2.45
2023-02-11T03:03:51.332Z,-2.44
2023-02-11T03:06:47.013Z,-2.44
2023-02-11T03:09:25.809Z,-2.44
2023-02-11T03:11:53.086Z,-2.44
2023-02-11T03:14:22.606Z,-2.43
2023-02-11T03:16:51.250Z,-2.42
2023-02-11T03:19:23.173Z,-2.40
2023-02-11T03:21:52.693Z,-2.36
2023-02-11T03:24:41.325Z,-2.31
2023-02-11T03:27:44.609Z,-2.24
2023-02-11T03:30:26.962Z,-2.16
2023-02-11T03:32:59.571Z,-2.09
2023-02-11T03:35:36.935Z,-2.04
2023-02-11T03:38:18.047Z,-1.99
2023-02-11T03:40:46.064Z,-1.98
2023-02-11T03:43:26.369Z,-1.99
2023-02-11T03:45:55.619Z,-2.00
2023-02-11T03:48:33.890Z,-2.02
2023-02-11T03:51:05.418Z,-2.04
2023-02-11T03:53:32.536Z,-2.05
2023-02-11T03:56:05.740Z,-2.06
2023-02-11T03:58:32.688Z,-2.07
2023-02-11T04:00:59.918Z,-2.06
2023-02-11T04:03:26.821Z,-2.05
2023-02-11T04:05:54.527Z,-2.03
2023-02-11T04:08:21.807Z,-1.99
2023-02-11T04:10:48.901Z,-1.94
2023-02-11T04:13:15.902Z,-1.88
2023-02-11T04:15:42.928Z,-1.82
2023-02-11T04:18:10.213Z,-1.80
2023-02-11T04:20:37.086Z,-1.77
2023-02-11T04:23:04.292Z,-1.74
2023-02-11T04:25:31.406Z,-1.72
2023-02-11T04:27:58.705Z,-1.71
2023-02-11T04:30:25.664Z,-1.70
2023-02-11T04:32:54.551Z,-1.69
2023-02-11T04:35:22.052Z,-1.67
2023-02-11T04:37:48.851Z,-1.65
2023-02-11T04:40:15.981Z,-1.62
2023-02-11T04:42:42.939Z,-1.56
2023-02-11T04:45:10.500Z,-1.50
2023-02-11T04:47:38.288Z,-1.45
2023-02-11T04:50:06.031Z,-1.40
2023-02-11T04:52:33.329Z,-1.37
2023-02-11T04:55:00.371Z,-1.36
2023-02-11T04:57:27.493Z,-1.35
2023-02-11T04:59:54.309Z,-1.35
2023-02-11T05:02:21.728Z,-1.35
2023-02-11T05:04:48.768Z,-1.36
2023-02-11T05:07:15.895Z,-1.35
2023-02-11T05:09:43.171Z,-1.36
2023-02-11T05:12:10.212Z,-1.36
2023-02-11T05:14:37.259Z,-1.36
2023-02-11T05:17:04.611Z,-1.35
2023-02-11T05:19:32.306Z,-1.33
2023-02-11T05:22:03.059Z,-1.30
2023-02-11T05:24:32.780Z,-1.24
2023-02-11T05:27:00.402Z,-1.18
2023-02-11T05:29:27.892Z,-1.11
2023-02-11T05:31:55.181Z,-1.08
2023-02-11T05:34:22.158Z,-1.05
2023-02-11T05:36:49.251Z,-1.04
2023-02-11T05:39:16.246Z,-1.04
2023-02-11T05:41:43.248Z,-1.04
2023-02-11T05:44:10.687Z,-1.04
2023-02-11T05:46:37.720Z,-1.06
2023-02-11T05:49:05.142Z,-1.06
2023-02-11T05:51:32.448Z,-1.07
2023-02-11T05:53:59.489Z,-1.08
2023-02-11T05:56:26.481Z,-1.08
2023-02-11T05:58:53.569Z,-1.05
2023-02-11T06:01:20.787Z,-1.02
2023-02-11T06:03:50.496Z,-0.98
2023-02-11T06:06:18.049Z,-0.94
2023-02-11T06:08:44.982Z,-0.90
2023-02-11T06:11:11.724Z,-0.88
2023-02-11T06:13:38.941Z,-0.87
2023-02-11T06:16:06.419Z,-0.88
2023-02-11T06:18:34.128Z,-0.89
2023-02-11T06:21:01.035Z,-0.90
2023-02-11T06:23:30.229Z,-0.92
2023-02-11T06:26:02.705Z,-0.94
2023-02-11T06:28:31.872Z,-0.95
2023-02-11T06:31:00.280Z,-0.97
2023-02-11T06:33:27.113Z,-0.96
2023-02-11T06:35:53.848Z,-0.93
2023-02-11T06:38:23.779Z,-0.89
2023-02-11T06:40:51.118Z,-0.87
2023-02-11T06:43:18.157Z,-0.87
2023-02-11T06:45:45.249Z,-0.87
2023-02-11T06:48:12.375Z,-0.86
2023-02-11T06:50:39.572Z,-0.87
2023-02-11T06:53:06.549Z,-0.88
2023-02-11T06:55:35.450Z,-0.89
2023-02-11T06:58:02.533Z,-0.88
2023-02-11T07:00:29.978Z,-0.88
2023-02-11T07:02:57.439Z,-0.87
2023-02-11T07:05:24.644Z,-0.84
2023-02-11T07:07:51.653Z,-0.80
2023-02-11T07:10:18.732Z,-0.76
2023-02-11T07:12:45.730Z,-0.72
2023-02-11T07:15:12.930Z,-0.68
2023-02-11T07:17:39.868Z,-0.66
2023-02-11T07:20:07.492Z,-0.65
2023-02-11T07:22:35.290Z,-0.65
2023-02-11T07:25:02.337Z,-0.64
2023-02-11T07:27:29.393Z,-0.63
2023-02-11T07:29:56.369Z,-0.64
2023-02-11T07:32:23.334Z,-0.66
2023-02-11T07:34:50.476Z,-0.65
2023-02-11T07:37:17.586Z,-0.61
2023-02-11T07:39:44.501Z,-0.60
2023-02-11T07:42:11.866Z,-0.59
2023-02-11T07:44:39.171Z,-0.58
2023-02-11T07:47:06.082Z,-0.59
2023-02-11T07:49:33.093Z,-0.61
2023-02-11T07:52:00.299Z,-0.60
2023-02-11T07:54:27.745Z,-0.53
2023-02-11T07:56:54.649Z,-0.36
2023-02-11T07:59:21.784Z,-0.15
2023-02-11T08:01:49.115Z,0.08
2023-02-11T08:04:16.183Z,0.23
2023-02-11T08:06:44.380Z,0.40
2023-02-11T08:09:19.249Z,0.53
2023-02-11T08:11:46.331Z,0.60
2023-02-11T08:14:13.385Z,0.62
2023-02-11T08:16:40.999Z,0.62
2023-02-11T08:19:13.027Z,0.65
2023-02-11T08:21:40.854Z,0.70
2023-02-11T08:24:08.410Z,0.74
2023-02-11T08:26:36.582Z,0.79
2023-02-11T08:29:14.703Z,0.83
2023-02-11T08:31:45.072Z,0.85
2023-02-11T08:34:14.949Z,0.91
2023-02-11T08:36:43.305Z,0.96
2023-02-11T08:39:20.029Z,0.96
2023-02-11T08:41:50.626Z,0.97
2023-02-11T08:44:19.175Z,1.00
2023-02-11T08:46:47.503Z,0.99
2023-02-11T08:49:15.268Z,0.95
2023-02-11T08:51:43.077Z,0.93
2023-02-11T08:54:10.699Z,0.89
2023-02-11T08:56:39.596Z,0.88
2023-02-11T08:59:07.587Z,0.92
2023-02-11T09:01:34.725Z,0.97
2023-02-11T09:04:02.133Z,1.05
2023-02-11T09:06:29.752Z,1.11
2023-02-11T09:08:58.338Z,1.23
2023-02-11T09:11:29.621Z,1.33
2023-02-11T09:13:57.486Z,1.37
2023-02-11T09:16:27.922Z,1.39
2023-02-11T09:18:57.886Z,1.50
2023-02-11T09:21:25.589Z,1.64
2023-02-11T09:23:53.170Z,1.84
2023-02-11T09:26:25.904Z,2.02
2023-02-11T09:28:53.340Z,2.24
2023-02-11T09:31:23.249Z,2.35
2023-02-11T09:33:52.703Z,2.47
2023-02-11T09:36:23.656Z,2.57
2023-02-11T09:38:51.598Z,2.61
2023-02-11T09:41:24.607Z,2.64
2023-02-11T09:43:55.327Z,2.58
2023-02-11T09:46:24.971Z,2.50
2023-02-11T09:48:56.136Z,2.45
2023-02-11T09:51:45.090Z,2.41
2023-02-11T09:54:20.277Z,2.34
2023-02-11T09:56:47.409Z,2.29
2023-02-11T09:59:16.248Z,2.26
2023-02-11T10:01:55.372Z,2.27
2023-02-11T10:04:45.030Z,2.27
2023-02-11T10:07:17.889Z,2.30
2023-02-11T10:10:03.097Z,2.37
2023-02-11T10:12:38.747Z,2.52
2023-02-11T10:15:18.281Z,2.58
2023-02-11T10:17:57.021Z,2.63
2023-02-11T10:21:12.183Z,2.76
2023-02-11T10:23:43.170Z,2.96
2023-02-11T10:26:19.045Z,3.15
2023-02-11T10:28:53.503Z,3.35
2023-02-11T10:31:27.316Z,3.52
2023-02-11T10:34:07.291Z,3.64
2023-02-11T10:36:37.170Z,3.74
2023-02-11T10:39:19.425Z,3.71
2023-02-11T10:41:47.669Z,3.67
2023-02-11T10:44:42.828Z,3.62
2023-02-11T10:47:17.553Z,3.55
2023-02-11T10:49:46.316Z,3.53
2023-02-11T10:52:18.134Z,3.60
2023-02-11T10:54:58.371Z,3.86
2023-02-11T10:57:31.695Z,4.12
2023-02-11T11:00:02.699Z,4.39
2023-02-11T11:02:34.888Z,4.77
2023-02-11T11:05:20.290Z,4.92
2023-02-11T11:08:00.110Z,4.99
2023-02-11T11:10:46.220Z,5.07
2023-02-11T11:13:29.273Z,5.15
2023-02-11T11:16:12.786Z,5.10
2023-02-11T11:18:41.423Z,5.00
2023-02-11T11:21:16.536Z,5.04
2023-02-11T11:23:51.982Z,5.08
2023-02-11T11:26:19.892Z,4.92
2023-02-11T11:28:49.851Z,4.79
2023-02-11T11:31:23.080Z,4.54
2023-02-11T11:33:53.894Z,4.39
2023-02-11T11:36:24.452Z,4.20
2023-02-11T11:38:57.011Z,4.02
2023-02-11T11:41:28.445Z,3.85
2023-02-11T11:44:00.305Z,3.77
2023-02-11T11:46:37.048Z,3.65
2023-02-11T11:49:23.540Z,3.59
2023-02-11T11:52:14.367Z,3.59
2023-02-11T11:54:46.612Z,3.56
2023-02-11T11:57:20.533Z,3.53
2023-02-11T11:59:48.277Z,3.45
2023-02-11T12:02:43.568Z,3.39
2023-02-11T12:05:48.603Z,3.27
2023-02-11T12:08:44.054Z,3.19
2023-02-11T12:11:39.029Z,3.17
2023-02-11T12:14:35.497Z,3.14
2023-02-11T12:17:31.580Z,3.13
2023-02-11T12:20:08.523Z,3.08
2023-02-11T12:22:54.253Z,3.05
2023-02-11T12:25:44.747Z,3.03
2023-02-11T12:28:30.261Z,2.98
2023-02-11T12:31:11.344Z,2.99
2023-02-11T12:33:39.769Z,2.99
2023-02-11T12:36:22.216Z,2.98
2023-02-11T12:39:04.867Z,2.96
2023-02-11T12:42:25.589Z,2.96
2023-02-11T12:45:11.724Z,2.95
2023-02-11T12:48:13.404Z,2.94
2023-02-11T12:51:00.604Z,2.95
2023-02-11T12:53:43.645Z,2.94
2023-02-11T12:56:22.093Z,2.93
2023-02-11T12:58:55.170Z,2.95
2023-02-11T13:01:44.659Z,2.94
2023-02-11T13:04:29.208Z,2.93
2023-02-11T13:07:02.606Z,2.92
2023-02-11T13:09:39.374Z,2.95
2023-02-11T13:12:27.250Z,2.95
2023-02-11T13:14:59.760Z,2.97
2023-02-11T13:17:34.300Z,2.98
2023-02-11T13:20:45.809Z,2.99
2023-02-11T13:23:15.698Z,3.03
2023-02-11T13:25:55.178Z,2.98
2023-02-11T13:29:04.292Z,2.96
2023-02-11T13:31:32.249Z,2.91
2023-02-11T13:33:59.283Z,2.86
2023-02-11T13:36:28.956Z,2.83
2023-02-11T13:39:21.418Z,2.80
2023-02-11T13:41:52.629Z,2.78
2023-02-11T13:44:25.360Z,2.72
2023-02-11T13:47:02.270Z,2.69
2023-02-11T13:49:35.808Z,2.62
2023-02-11T13:52:06.855Z,2.58
2023-02-11T13:54:38.820Z,2.56
2023-02-11T13:57:20.849Z,2.51
2023-02-11T13:59:52.354Z,2.45
2023-02-11T14:02:47.881Z,2.41
2023-02-11T14:05:42.284Z,2.36
2023-02-11T14:08:30.747Z,2.28
2023-02-11T14:11:12.926Z,2.19
2023-02-11T14:13:49.177Z,2.11
2023-02-11T14:16:35.242Z,2.06
2023-02-11T14:19:04.505Z,2.02
2023-02-11T14:21:43.421Z,2.01
2023-02-11T14:24:11.408Z,2.03
2023-02-11T14:26:59.606Z,2.04
2023-02-11T14:29:26.644Z,2.06
2023-02-11T14:31:56.853Z,2.06
2023-02-11T14:34:47.174Z,2.05
2023-02-11T14:37:36.413Z,2.03
2023-02-11T14:40:05.606Z,2.01
2023-02-11T14:42:32.791Z,1.99
2023-02-11T14:45:07.013Z,1.97
2023-02-11T14:48:09.182Z,1.95
2023-02-11T14:50:58.530Z,1.93
2023-02-11T14:53:28.771Z,1.92
2023-02-11T14:55:56.178Z,1.93
2023-02-11T14:58:23.122Z,1.93
2023-02-11T15:01:01.976Z,1.93
2023-02-11T15:03:29.251Z,1.94
2023-02-11T15:06:00.608Z,1.93
2023-02-11T15:08:29.025Z,1.91
2023-02-11T15:10:57.106Z,1.89
2023-02-11T15:13:27.326Z,1.85
2023-02-11T15:16:19.888Z,1.83
2023-02-11T15:18:59.009Z,1.83
2023-02-11T15:21:31.625Z,1.84
2023-02-11T15:24:21.093Z,1.86
2023-02-11T15:26:58.529Z,1.88
2023-02-11T15:29:27.375Z,1.94
2023-02-11T15:32:16.036Z,1.91
2023-02-11T15:34:44.633Z,1.85
2023-02-11T15:37:25.340Z,1.79
2023-02-11T15:39:54.378Z,1.74
2023-02-11T15:42:31.433Z,1.71
2023-02-11T15:45:29.448Z,1.65
2023-02-11T15:48:00.177Z,1.57
2023-02-11T15:50:31.312Z,1.50
2023-02-11T15:53:02.622Z,1.45
2023-02-11T15:55:30.779Z,1.42
2023-02-11T15:58:00.938Z,1.38
2023-02-11T16:00:50.622Z,1.35
2023-02-11T16:03:24.619Z,1.32
2023-02-11T16:05:52.137Z,1.31
2023-02-11T16:08:29.584Z,1.30
2023-02-11T16:11:00.140Z,1.28
2023-02-11T16:13:29.906Z,1.26
2023-02-11T16:16:02.747Z,1.21
2023-02-11T16:18:39.080Z,1.19
2023-02-11T16:21:14.865Z,1.15
2023-02-11T16:23:42.871Z,1.10
2023-02-11T16:26:26.147Z,1.06
2023-02-11T16:28:54.288Z,1.04
2023-02-11T16:31:21.612Z,1.05
2023-02-11T16:33:48.570Z,1.06
2023-02-11T16:36:19.544Z,1.07
2023-02-11T16:38:46.549Z,1.09
2023-02-11T16:41:13.729Z,1.11
2023-02-11T16:43:40.948Z,1.14
2023-02-11T16:46:09.969Z,1.16
2023-02-11T16:48:38.308Z,1.18
2023-02-11T16:51:05.562Z,1.18
2023-02-11T16:53:32.773Z,1.19
2023-02-11T16:55:59.891Z,1.20
2023-02-11T16:58:27.105Z,1.20
2023-02-11T17:00:54.503Z,1.20
2023-02-11T17:03:27.478Z,1.18
2023-02-11T17:05:56.526Z,1.16
2023-02-11T17:08:23.822Z,1.13
2023-02-11T17:10:51.016Z,1.10
2023-02-11T17:13:18.392Z,1.10
2023-02-11T17:15:45.533Z,1.10
2023-02-11T17:18:14.722Z,1.09
2023-02-11T17:20:41.747Z,1.09
2023-02-11T17:23:09.504Z,1.11
2023-02-11T17:25:40.977Z,1.13
2023-02-11T17:28:09.547Z,1.14
2023-02-11T17:30:36.923Z,1.16
2023-02-11T17:33:04.053Z,1.17
2023-02-11T17:35:31.483Z,1.19
2023-02-11T17:37:59.480Z,1.21
2023-02-11T17:40:27.293Z,1.24
2023-02-11T17:42:54.445Z,1.25
2023-02-11T17:45:22.475Z,1.24
2023-02-11T17:47:49.885Z,1.22
2023-02-11T17:50:17.089Z,1.18
2023-02-11T17:52:44.414Z,1.16
2023-02-11T17:55:11.866Z,1.12
2023-02-11T17:57:39.125Z,1.10
2023-02-11T18:00:08.862Z,1.11
2023-02-11T18:02:35.996Z,1.13
2023-02-11T18:05:03.951Z,1.15
2023-02-11T18:07:30.886Z,1.18
2023-02-11T18:09:57.855Z,1.20
2023-02-11T18:12:27.667Z,1.22
2023-02-11T18:14:57.892Z,1.25
2023-02-11T18:17:25.627Z,1.26
2023-02-11T18:19:57.187Z,1.27
2023-02-11T18:22:24.828Z,1.29
2023-02-11T18:24:53.817Z,1.33
2023-02-11T18:27:22.161Z,1.35
2023-02-11T18:29:49.041Z,1.37
2023-02-11T18:32:16.448Z,1.40
2023-02-11T18:34:43.504Z,1.41
2023-02-11T18:37:11.734Z,1.42
2023-02-11T18:39:39.091Z,1.41
2023-02-11T18:42:06.417Z,1.39
2023-02-11T18:44:33.730Z,1.35
2023-02-11T18:47:01.424Z,1.35
2023-02-11T18:49:28.879Z,1.38
2023-02-11T18:51:55.970Z,1.40
2023-02-11T18:54:23.076Z,1.43
2023-02-11T18:56:50.371Z,1.46
2023-02-11T18:59:17.483Z,1.48
2023-02-11T19:01:47.305Z,1.51
2023-02-11T19:04:19.292Z,1.52
2023-02-11T19:06:49.776Z,1.52
2023-02-11T19:09:19.756Z,1.54
2023-02-11T19:11:47.609Z,1.56
2023-02-11T19:14:34.560Z,1.57
2023-02-11T19:17:05.312Z,1.60
2023-02-11T19:19:34.794Z,1.62
2023-02-11T19:22:03.748Z,1.67
2023-02-11T19:24:31.141Z,1.69
2023-02-11T19:27:00.456Z,1.71
2023-02-11T19:29:28.551Z,1.72
2023-02-11T19:31:56.312Z,1.71
2023-02-11T19:34:24.403Z,1.72
2023-02-11T19:36:51.818Z,1.71
2023-02-11T19:39:19.169Z,1.70
2023-02-11T19:41:47.752Z,1.66
2023-02-11T19:44:17.969Z,1.65
2023-02-11T19:46:46.326Z,1.70
2023-02-11T19:49:16.927Z,1.72
2023-02-11T19:51:44.553Z,1.75
2023-02-11T19:54:11.888Z,1.76
2023-02-11T19:56:39.254Z,1.79
2023-02-11T19:59:09.170Z,1.83
2023-02-11T20:01:37.159Z,1.87
2023-02-11T20:04:04.052Z,1.89
2023-02-11T20:06:32.875Z,1.91
2023-02-11T20:09:03.109Z,1.92
2023-02-11T20:11:31.981Z,1.97
2023-02-11T20:13:59.824Z,1.99
2023-02-11T20:16:41.008Z,2.00
2023-02-11T20:19:18.349Z,2.03
2023-02-11T20:21:48.547Z,2.03
2023-02-11T20:24:17.571Z,2.04
2023-02-11T20:26:46.700Z,2.08
2023-02-11T20:29:13.673Z,2.11
2023-02-11T20:31:40.650Z,2.13
2023-02-11T20:34:07.740Z,2.15
2023-02-11T20:36:37.748Z,2.13
2023-02-11T20:39:06.488Z,2.10
2023-02-11T20:41:35.806Z,2.08
2023-02-11T20:44:05.901Z,2.04
2023-02-11T20:46:35.053Z,2.03
2023-02-11T20:49:02.547Z,2.06
2023-02-11T20:51:32.847Z,2.09
2023-02-11T20:54:00.786Z,2.14
2023-02-11T20:56:31.661Z,2.17
2023-02-11T20:59:00.165Z,2.21
2023-02-11T21:01:31.063Z,2.24
2023-02-11T21:03:57.978Z,2.28
2023-02-11T21:06:27.897Z,2.29
2023-02-11T21:08:54.781Z,2.30
2023-02-11T21:11:21.658Z,2.33
2023-02-11T21:13:49.087Z,2.37
2023-02-11T21:16:20.706Z,2.41
2023-02-11T21:18:49.004Z,2.45
2023-02-11T21:21:17.600Z,2.48
2023-02-11T21:23:45.019Z,2.51
2023-02-11T21:26:12.138Z,2.53
2023-02-11T21:28:41.044Z,2.55
2023-02-11T21:31:09.932Z,2.56
2023-02-11T21:33:37.137Z,2.56
2023-02-11T21:36:08.041Z,2.57
2023-02-11T21:38:35.428Z,2.61
2023-02-11T21:41:06.623Z,2.67
2023-02-11T21:43:34.059Z,2.74
2023-02-11T21:46:01.415Z,2.80
2023-02-11T21:48:28.709Z,2.86
2023-02-11T21:50:55.575Z,2.91
2023-02-11T21:53:22.494Z,2.95
2023-02-11T21:55:54.854Z,2.99
2023-02-11T21:58:22.011Z,3.03
2023-02-11T22:00:48.898Z,3.08
2023-02-11T22:03:15.981Z,3.11
2023-02-11T22:05:43.043Z,3.13
2023-02-11T22:08:10.053Z,3.18
2023-02-11T22:10:37.093Z,3.19
2023-02-11T22:13:03.982Z,3.22
2023-02-11T22:15:31.186Z,3.24
2023-02-11T22:17:58.214Z,3.25
2023-02-11T22:20:25.574Z,3.25
2023-02-11T22:22:52.563Z,3.26
2023-02-11T22:25:19.607Z,3.28
2023-02-11T22:27:46.613Z,3.31
2023-02-11T22:30:14.465Z,3.32
2023-02-11T22:32:42.765Z,3.34
2023-02-11T22:35:09.890Z,3.36
2023-02-11T22:37:36.942Z,3.38
2023-02-11T22:40:04.325Z,3.39
2023-02-11T22:42:31.168Z,3.42
2023-02-11T22:44:58.389Z,3.43
2023-02-11T22:47:25.459Z,3.44
2023-02-11T22:49:52.405Z,3.44
2023-02-11T22:52:19.324Z,3.44
2023-02-11T22:54:47.614Z,3.46
2023-02-11T22:57:14.705Z,3.47
2023-02-11T22:59:42.020Z,3.50
2023-02-11T23:02:09.072Z,3.51
2023-02-11T23:04:36.114Z,3.54
2023-02-11T23:07:03.164Z,3.53
2023-02-11T23:09:30.108Z,3.56
2023-02-11T23:11:58.178Z,3.56
2023-02-11T23:14:25.912Z,3.57
2023-02-11T23:16:53.073Z,3.58
2023-02-11T23:19:20.323Z,3.58
2023-02-11T23:21:51.747Z,3.57
2023-02-11T23:24:18.716Z,3.60
2023-02-11T23:26:46.184Z,3.60
2023-02-11T23:29:13.665Z,3.60
2023-02-11T23:31:44.170Z,3.59
2023-02-11T23:34:12.470Z,3.60
2023-02-11T23:36:39.373Z,3.60
2023-02-11T23:39:06.626Z,3.61
2023-02-11T23:41:33.834Z,3.61
2023-02-11T23:44:01.331Z,3.60
2023-02-11T23:46:28.766Z,3.62
2023-02-11T23:48:56.243Z,3.62
2023-02-11T23:51:24.154Z,3.62
2023-02-11T23:53:52.910Z,3.62
2023-02-11T23:56:26.281Z,3.61
2023-02-11T23:58:56.349Z,3.61
